Alianca Shanghai — A8CQ5 — position and weather

sailwx.info

Track history (hours):
 
Tides and Currents Weather Stations Pressure Air Temp Water Temp Dewpoint Dewpoint Depression Visibility Wind Speed Wind Dir Waves Ship Positions

Alianca Shanghai

Last reported at 2016-Aug-29 23:31 UTC. Time now 2016-Aug-30 18:53 UTC.
Position N 19°52' W 018°00'.

Length 199.9 m; beam 29.8 m; draft 11.6 m.

Type: Ship. MMSI: 636016014.

Date/timePositionNaut miles runAvg speedWind from/ knotsBaromVisibWave heightAir tempDewpointWater temp
2016-Aug-29 23:31N 19°52' W 018°00'1515.1
2016-Aug-29 22:33N 20°07' W 017°60'12415.4
2016-Aug-29 14:31N 22°08' W 017°33'3116.0
2016-Aug-29 12:33N 22°38' W 017°22'1616.0
2016-Aug-29 11:32N 22°53' W 017°16'1815.6
2016-Aug-29 10:21N 23°11' W 017°10'7815.8
2016-Aug-29 05:25N 24°24' W 016°40'4716.1
2016-Aug-29 02:31N 25°08' W 016°23'1816.4
2016-Aug-29 01:26N 25°24' W 016°16'3016.0
2016-Aug-28 23:33N 25°53' W 016°04'11716.3
2016-Aug-28 16:21N 27°43' W 015°20'1417.0
2016-Aug-28 15:33N 27°56' W 015°15'1414.2
2016-Aug-28 14:33N 28°07' W 015°25'1 0.8
2016-Aug-28 13:28N 28°08' W 015°25'0 0.0
2016-Aug-28 12:28N 28°08' W 015°25'0 0.0
2016-Aug-28 11:31N 28°08' W 015°25'0 0.0
2016-Aug-28 10:31N 28°08' W 015°25'0 0.0
2016-Aug-28 09:22N 28°08' W 015°25'0 0.0
2016-Aug-28 08:25N 28°08' W 015°25'0 0.0
2016-Aug-28 07:31N 28°08' W 015°25'0 0.0
2016-Aug-28 06:31N 28°08' W 015°25'0 0.0
2016-Aug-28 05:31N 28°08' W 015°25'0 0.0
2016-Aug-28 04:31N 28°08' W 015°25'0 0.0
2016-Aug-28 03:31N 28°08' W 015°25'0 0.0
2016-Aug-28 02:31N 28°08' W 015°25'0 0.0
2016-Aug-28 01:33N 28°08' W 015°25'4 3.5
2016-Aug-28 00:33N 28°08' W 015°21'2 1.8
2016-Aug-27 23:33N 28°10' W 015°20'9 8.5
2016-Aug-27 22:33N 28°15' W 015°13'1515.0
2016-Aug-27 21:33N 28°26' W 015°01'1716.0
2016-Aug-27 20:28N 28°38' W 014°47'1515.9
2016-Aug-27 19:33N 28°48' W 014°35'1816.2
2016-Aug-27 18:28N 29°01' W 014°21'17315.9
2016-Aug-27 07:33N 31°02' W 011°58'2315.9
2016-Aug-27 06:06N 31°18' W 011°39'253 4.9
2016-Aug-25 02:26N 33°41' W 007°31'0 0.0
2016-Aug-24 18:05N 33°41' W 007°32'38 4.4
2016-Aug-24 09:33N 34°15' W 007°51'1616.1
2016-Aug-24 08:32N 34°30' W 007°58'1616.0
2016-Aug-24 07:32N 34°45' W 008°06'1715.8
2016-Aug-24 06:27N 35°00' W 008°14'3115.9
2016-Aug-24 04:29N 35°29' W 008°29'6615.9
2016-Aug-24 00:19N 36°30' W 009°02'1215.7
2016-Aug-23 23:33N 36°35' W 009°17'1515.5
2016-Aug-23 22:33N 36°46' W 009°30'1515.1
2016-Aug-23 21:33N 37°00' W 009°36'1615.9
2016-Aug-23 20:33N 37°13' W 009°24'1615.9
2016-Aug-23 19:33N 37°26' W 009°13'1515.5
2016-Aug-23 18:33N 37°39' W 009°03'1515.2
2016-Aug-23 17:33N 37°52' W 008°52'4 4.4
2016-Aug-23 16:33N 37°56' W 008°51'0 0.0
2016-Aug-23 15:33N 37°56' W 008°51'0 0.0
2016-Aug-23 14:30N 37°56' W 008°51'0 0.0
2016-Aug-23 13:33N 37°56' W 008°51'0 0.0
2016-Aug-23 12:33N 37°56' W 008°51'0 0.0
2016-Aug-23 11:30N 37°56' W 008°51'0 0.0
2016-Aug-23 10:33N 37°56' W 008°51'0 0.0
2016-Aug-23 09:33N 37°56' W 008°51'0 0.0
2016-Aug-23 08:33N 37°56' W 008°51'0 0.0
2016-Aug-23 07:30N 37°56' W 008°51'0 0.0
2016-Aug-23 06:33N 37°56' W 008°51'0 0.0
2016-Aug-23 05:33N 37°56' W 008°51'0 0.0
2016-Aug-23 04:33N 37°56' W 008°51'0 0.5
2016-Aug-23 03:33N 37°56' W 008°51'9 8.6
2016-Aug-23 02:33N 37°48' W 008°56'2 2.2
2016-Aug-23 01:33N 37°47' W 008°59'1 1.3
2016-Aug-23 00:33N 37°48' W 008°59'1 1.1
2016-Aug-22 23:32N 37°49' W 009°00'1 0.9
2016-Aug-22 22:33N 37°49' W 008°59'8 8.4
2016-Aug-22 21:33N 37°50' W 009°10'1414.0
2016-Aug-22 20:33N 37°54' W 009°26'1414.2
2016-Aug-22 19:33N 37°59' W 009°43'1414.1
2016-Aug-22 18:33N 38°10' W 009°55'1515.3
2016-Aug-22 17:33N 38°24' W 010°00'1615.8
2016-Aug-22 16:33N 38°40' W 010°06'1715.3
2016-Aug-22 15:27N 38°56' W 010°07'5915.2
2016-Aug-22 11:33N 39°56' W 010°07'12715.3
2016-Aug-22 03:13N 42°03' W 010°05'1014.7
2016-Aug-22 02:33N 42°13' W 010°05'6415.4
2016-Aug-21 22:22N 43°17' W 010°06'46813.8
2016-Aug-20 12:22N 49°41' W 003°39'1113.6
2016-Aug-20 11:33N 49°47' W 003°24'1312.9
2016-Aug-20 10:33N 49°53' W 003°06'1111.6
2016-Aug-20 09:33N 49°58' W 002°50'1010.3
2016-Aug-20 08:33N 50°01' W 002°35'6412.8
2016-Aug-20 03:33N 49°45' W 000°59'1817.7
2016-Aug-20 02:33N 49°38' W 000°34'1616.2
2016-Aug-20 01:33N 49°33' W 000°10'1212.0
2016-Aug-20 00:33N 49°28' E 000°07'  
Track history (hours):
 
Tides and Currents Weather Stations Pressure Air Temp Water Temp Dewpoint Dewpoint Depression Visibility Wind Speed Wind Dir Waves Ship Positions

Alianca Shanghai

Last reported at 2016-Aug-29 23:31 UTC. Time now 2016-Aug-30 18:53 UTC.
Position N 19°52' W 018°00'.

Length 199.9 m; beam 29.8 m; draft 11.6 m.

Type: Ship. MMSI: 636016014.

Date/timePositionNaut miles runAvg speedWind from/ knotsBaromVisibWave heightAir tempDewpointWater temp
2016-Aug-29 23:31N 19°52' W 018°00'1515.1
2016-Aug-29 22:33N 20°07' W 017°60'12415.4
2016-Aug-29 14:31N 22°08' W 017°33'3116.0
2016-Aug-29 12:33N 22°38' W 017°22'1616.0
2016-Aug-29 11:32N 22°53' W 017°16'1815.6
2016-Aug-29 10:21N 23°11' W 017°10'7815.8
2016-Aug-29 05:25N 24°24' W 016°40'4716.1
2016-Aug-29 02:31N 25°08' W 016°23'1816.4
2016-Aug-29 01:26N 25°24' W 016°16'3016.0
2016-Aug-28 23:33N 25°53' W 016°04'11716.3
2016-Aug-28 16:21N 27°43' W 015°20'1417.0
2016-Aug-28 15:33N 27°56' W 015°15'1414.2
2016-Aug-28 14:33N 28°07' W 015°25'1 0.8
2016-Aug-28 13:28N 28°08' W 015°25'0 0.0
2016-Aug-28 12:28N 28°08' W 015°25'0 0.0
2016-Aug-28 11:31N 28°08' W 015°25'0 0.0
2016-Aug-28 10:31N 28°08' W 015°25'0 0.0
2016-Aug-28 09:22N 28°08' W 015°25'0 0.0
2016-Aug-28 08:25N 28°08' W 015°25'0 0.0
2016-Aug-28 07:31N 28°08' W 015°25'0 0.0
2016-Aug-28 06:31N 28°08' W 015°25'0 0.0
2016-Aug-28 05:31N 28°08' W 015°25'0 0.0
2016-Aug-28 04:31N 28°08' W 015°25'0 0.0
2016-Aug-28 03:31N 28°08' W 015°25'0 0.0
2016-Aug-28 02:31N 28°08' W 015°25'0 0.0
2016-Aug-28 01:33N 28°08' W 015°25'4 3.5
2016-Aug-28 00:33N 28°08' W 015°21'2 1.8
2016-Aug-27 23:33N 28°10' W 015°20'9 8.5
2016-Aug-27 22:33N 28°15' W 015°13'1515.0
2016-Aug-27 21:33N 28°26' W 015°01'1716.0
2016-Aug-27 20:28N 28°38' W 014°47'1515.9
2016-Aug-27 19:33N 28°48' W 014°35'1816.2
2016-Aug-27 18:28N 29°01' W 014°21'17315.9
2016-Aug-27 07:33N 31°02' W 011°58'2315.9
2016-Aug-27 06:06N 31°18' W 011°39'253 4.9
2016-Aug-25 02:26N 33°41' W 007°31'0 0.0
2016-Aug-24 18:05N 33°41' W 007°32'38 4.4
2016-Aug-24 09:33N 34°15' W 007°51'1616.1
2016-Aug-24 08:32N 34°30' W 007°58'1616.0
2016-Aug-24 07:32N 34°45' W 008°06'1715.8
2016-Aug-24 06:27N 35°00' W 008°14'3115.9
2016-Aug-24 04:29N 35°29' W 008°29'6615.9
2016-Aug-24 00:19N 36°30' W 009°02'1215.7
2016-Aug-23 23:33N 36°35' W 009°17'1515.5
2016-Aug-23 22:33N 36°46' W 009°30'1515.1
2016-Aug-23 21:33N 37°00' W 009°36'1615.9
2016-Aug-23 20:33N 37°13' W 009°24'1615.9
2016-Aug-23 19:33N 37°26' W 009°13'1515.5
2016-Aug-23 18:33N 37°39' W 009°03'1515.2
2016-Aug-23 17:33N 37°52' W 008°52'4 4.4
2016-Aug-23 16:33N 37°56' W 008°51'0 0.0
2016-Aug-23 15:33N 37°56' W 008°51'0 0.0
2016-Aug-23 14:30N 37°56' W 008°51'0 0.0
2016-Aug-23 13:33N 37°56' W 008°51'0 0.0
2016-Aug-23 12:33N 37°56' W 008°51'0 0.0
2016-Aug-23 11:30N 37°56' W 008°51'0 0.0
2016-Aug-23 10:33N 37°56' W 008°51'0 0.0
2016-Aug-23 09:33N 37°56' W 008°51'0 0.0
2016-Aug-23 08:33N 37°56' W 008°51'0 0.0
2016-Aug-23 07:30N 37°56' W 008°51'0 0.0
2016-Aug-23 06:33N 37°56' W 008°51'0 0.0
2016-Aug-23 05:33N 37°56' W 008°51'0 0.0
2016-Aug-23 04:33N 37°56' W 008°51'0 0.5
2016-Aug-23 03:33N 37°56' W 008°51'9 8.6
2016-Aug-23 02:33N 37°48' W 008°56'2 2.2
2016-Aug-23 01:33N 37°47' W 008°59'1 1.3
2016-Aug-23 00:33N 37°48' W 008°59'1 1.1
2016-Aug-22 23:32N 37°49' W 009°00'1 0.9
2016-Aug-22 22:33N 37°49' W 008°59'8 8.4
2016-Aug-22 21:33N 37°50' W 009°10'1414.0
2016-Aug-22 20:33N 37°54' W 009°26'1414.2
2016-Aug-22 19:33N 37°59' W 009°43'1414.1
2016-Aug-22 18:33N 38°10' W 009°55'1515.3
2016-Aug-22 17:33N 38°24' W 010°00'1615.8
2016-Aug-22 16:33N 38°40' W 010°06'1715.3
2016-Aug-22 15:27N 38°56' W 010°07'5915.2
2016-Aug-22 11:33N 39°56' W 010°07'12715.3
2016-Aug-22 03:13N 42°03' W 010°05'1014.7
2016-Aug-22 02:33N 42°13' W 010°05'6415.4
2016-Aug-21 22:22N 43°17' W 010°06'46813.8
2016-Aug-20 12:22N 49°41' W 003°39'1113.6
2016-Aug-20 11:33N 49°47' W 003°24'1312.9
2016-Aug-20 10:33N 49°53' W 003°06'1111.6
2016-Aug-20 09:33N 49°58' W 002°50'1010.3
2016-Aug-20 08:33N 50°01' W 002°35'6412.8
2016-Aug-20 03:33N 49°45' W 000°59'1817.7
2016-Aug-20 02:33N 49°38' W 000°34'1616.2
2016-Aug-20 01:33N 49°33' W 000°10'1212.0
2016-Aug-20 00:33N 49°28' E 000°07'  

Dump ship's entire track history